• Join FlightAware (Why Join?)
  • Login
  • US Flag 
04:05AM EDT


 

Airport Tracker/Info


-or-


 

Live Flight TrackerFlight Track Log ✈ SWA378 ✈ 10-May-2013 ✈ KATL - KORF

Flight Track Log - Related Links

Times and Time Zones

All times are in EDT time to prevent confusion due to time zone crossing. See the SWA378 flight status page for this flight to view local times or setup timezone preferences in your user account.

Time Position Orientation Groundspeed Altitude Reporting Facility
EDT Latitude Longitude Course Direction KTS MPH feet Rate Location/Type
06:38PM 33.6347 -84.4756 258° West 429 494 2,600  Level Atlanta Center
06:38PM 33.6333 -84.4833 258° West 183 211 3,000 1,920 Climbing Atlanta TRACON
06:39PM 33.6000 -84.5500 239° Southwest 253 291 5,000 2,820 Climbing Atlanta TRACON
06:40PM 33.5333 -84.5833 203° Southwest 249 287 8,700 2,640 Climbing Atlanta TRACON
06:42PM 33.4553 -84.4719 130° Southeast 303 349 12,300 2,280 Climbing Atlanta Center
06:43PM 33.4536 -84.3625 91° East 315 362 15,000 2,760 Climbing Atlanta Center
06:44PM 33.4747 -84.2331 79° East 395 455 17,900 2,760 Climbing Atlanta Center
06:45PM 33.5269 -84.1086 63° Northeast 400 460 20,600 2,580 Climbing Atlanta Center
06:46PM 33.5814 -83.9789 63° Northeast 423 487 23,100 1,200 Climbing Atlanta Center
06:47PM 33.6189 -83.8442 71° East 428 493 23,000 660 Descending Atlanta Center
06:48PM 33.6456 -83.7019 77° East 428 493 24,500 1,620 Climbing Atlanta Center
06:49PM 33.6931 -83.5619 68° East 440 506 26,300 1,200 Climbing Atlanta Center
06:50PM 33.7508 -83.4192 64° Northeast 463 533 27,000 1,200 Climbing Atlanta Center
06:51PM 33.8064 -83.2814 64° Northeast 469 540 28,800 1,560 Climbing Atlanta Center
06:52PM 33.8661 -83.1331 64° Northeast 469 540 30,200 1,500 Climbing Atlanta Center
06:53PM 33.9317 -82.9747 63° Northeast 474 545 31,900 1,800 Climbing Atlanta Center
06:54PM 33.9867 -82.8261 66° East 474 545 33,900 1,380 Climbing Atlanta Center
06:55PM 34.0497 -82.6775 63° Northeast 474 545 34,700 540 Climbing Atlanta Center
06:56PM 34.1064 -82.5258 66° East 488 562 35,000 120 Climbing Atlanta Center
06:57PM 34.1589 -82.3969 64° Northeast 483 556 35,000  Level Atlanta Center
06:58PM 34.2153 -82.2503 65° Northeast 483 556 35,000  Level Atlanta Center
06:59PM 34.2758 -82.1081 63° Northeast 483 556 35,000  Level Atlanta Center
07:00PM 34.3444 -81.9683 59° Northeast 483 556 35,000  Level Atlanta Center
07:01PM 34.4131 -81.8331 58° Northeast 478 550 35,000  Level Atlanta Center
07:02PM 34.4836 -81.6900 59° Northeast 478 550 35,000  Level Atlanta Center
07:03PM 34.5517 -81.5544 59° Northeast 478 550 35,000  Level Atlanta Center
07:04PM 34.6197 -81.4136 60° Northeast 478 550 35,000  Level Atlanta Center
07:05PM 34.6878 -81.2778 59° Northeast 478 550 35,000  Level Atlanta Center
07:06PM 34.7575 -81.1339 59° Northeast 478 550 35,000  Level Atlanta Center
07:07PM 34.8250 -80.9947 59° Northeast 478 550 35,000  Level Atlanta Center
07:08PM 34.8944 -80.8531 59° Northeast 478 550 35,000  Level Atlanta Center
07:09PM 34.9617 -80.7136 60° Northeast 478 550 35,000  Level Atlanta Center
07:12PM 35.1214 -80.3786 60° Northeast 486 559 35,000  Level Washington Center
07:12PM 35.1917 -80.2381 59° Northeast 468 539 35,000  Level Washington Center
07:13PM 35.2553 -80.0992 61° Northeast 467 537 35,000  Level Washington Center
07:14PM 35.3228 -79.9656 58° Northeast 467 537 35,000  Level Washington Center
07:15PM 35.3864 -79.8264 61° Northeast 462 532 35,000  Level Washington Center
07:16PM 35.4536 -79.6869 59° Northeast 462 532 35,000  Level Washington Center
07:17PM 35.5189 -79.5500 60° Northeast 462 532 35,000 -360 Level Washington Center
07:18PM 35.5839 -79.4103 60° Northeast 462 532 34,300 -840 Descending Washington Center
07:19PM 35.6489 -79.2703 60° Northeast 462 532 33,400 -960 Descending Washington Center
07:20PM 35.7156 -79.1325 59° Northeast 467 537 32,400 -1,020 Descending Washington Center
07:21PM 35.7803 -78.9894 61° Northeast 467 537 31,400 -1,020 Descending Washington Center
07:22PM 35.8492 -78.8414 60° Northeast 467 537 30,400 -1,080 Descending Washington Center
07:23PM 35.8864 -78.6942 73° East 450 518 29,300 -720 Descending Washington Center
07:24PM 35.8986 -78.5408 84° East 443 510 29,000 -180 Descending Washington Center
07:25PM 35.9147 -78.3900 82° East 443 510 29,000 -540 Level Washington Center
07:26PM 35.9264 -78.2392 84° East 443 510 28,000 -1,020 Descending Washington Center
07:27PM 35.9422 -78.0961 82° East 443 510 27,000 -1,020 Descending Washington Center
07:28PM 35.9556 -77.9503 84° East 432 497 26,000 -1,500 Descending Washington Center
07:29PM 35.9686 -77.8042 84° East 426 490 24,100 -1,440 Descending Washington Center
07:30PM 35.9961 -77.6664 76° East 426 490 23,100 -1,020 Descending Washington Center
07:31PM 36.0608 -77.5472 56° Northeast 411 473 22,100 -1,020 Descending Washington Center
07:32PM 36.1231 -77.4331 56° Northeast 399 459 21,100 -1,020 Descending Washington Center
07:33PM 36.1833 -77.3239 56° Northeast 393 452 20,100 -1,020 Descending Washington Center
07:34PM 36.2411 -77.2119 57° Northeast 382 440 19,100 -1,020 Descending Washington Center
07:35PM 36.3008 -77.1022 56° Northeast 383 441 18,100 -1,140 Descending Washington Center
07:36PM 36.3436 -77.0181 58° Northeast 377 434 17,100 -1,740 Descending Washington Center
07:37PM 36.3992 -76.9131 57° Northeast 363 418 15,000 -1,860 Descending Washington Center
07:38PM 36.4653 -76.7853 57° Northeast 365 420 13,000 -1,740 Descending Washington Center
07:38PM 36.4653 -76.7853 57° Northeast 355 409 12,900 -1,920 Descending Washington Center
07:39PM 36.5142 -76.6850 59° Northeast 359 413 11,200 -1,560 Descending Washington Center
07:40PM 36.5631 -76.5875 58° Northeast 345 397 9,900 -1,200 Descending Washington Center
07:41PM 36.6117 -76.4975 56° Northeast 322 371 8,900 -1,020 Descending Washington Center
07:43PM 36.6519 -76.3867 66° East 307 353 7,700 -1,200 Descending Washington Center
07:44PM 36.7067 -76.3175 45° Northeast 298 343 6,500 -960 Descending Washington Center
07:44PM 36.7572 -76.2633 41° Northeast 290 334 6,000 -540 Descending Washington Center
07:45PM 36.8181 -76.1989 40° Northeast 250 288 5,500 -840 Descending Washington Center
07:46PM 36.8725 -76.1422 40° Northeast 254 292 4,400 -1,140 Descending Washington Center